Time;durP1;ratioP1;P1;durP2;ratioP2;P2;SDS_P1;SDS_P2;PMS_P1;PMS_P2;Temp;Humidity;BMP_temperature;BMP_pressure;BME280_temperature;BME280_humidity;BME280_pressure;Samples;Min_cycle;Max_cycle;Signal;HPM_P1;HPM_P2
2021/01/01 05:02:54;;;;;;;1999.90;999.90;;;3.90;99.90;;;;;;4860478;29;20560;-78
2021/01/01 05:05:27;;;;;;;1999.90;999.90;;;4.00;99.90;;;;;;4862233;29;20573;-77
2021/01/01 05:07:54;;;;;;;1999.90;999.90;;;4.00;99.90;;;;;;4861834;29;20216;-77
2021/01/01 05:10:20;;;;;;;1999.90;999.90;;;4.10;99.90;;;;;;4862290;29;20213;-76
2021/01/01 05:12:48;;;;;;;1999.90;999.90;;;4.10;99.90;;;;;;4862333;29;20208;-76
2021/01/01 05:15:32;;;;;;;1999.90;999.90;;;4.10;99.90;;;;;;4862442;29;20217;-77
2021/01/01 05:18:00;;;;;;;1999.90;999.90;;;4.10;99.90;;;;;;4861923;29;20208;-76
2021/01/01 05:20:28;;;;;;;1999.90;999.90;;;4.10;99.90;;;;;;4861933;29;20204;-77
2021/01/01 05:22:58;;;;;;;1999.90;999.90;;;4.10;99.90;;;;;;4861842;29;20698;-76
2021/01/01 05:25:26;;;;;;;1999.90;999.90;;;4.00;99.90;;;;;;4862253;29;20208;-76
2021/01/01 05:27:59;;;;;;;1999.90;999.90;;;4.00;99.90;;;;;;4861736;29;20225;-77
2021/01/01 05:30:30;;;;;;;1999.90;999.90;;;3.90;99.90;;;;;;4862220;29;20504;-76
2021/01/01 05:32:58;;;;;;;1999.90;999.90;;;3.90;99.90;;;;;;4861738;29;20254;-77
2021/01/01 05:35:27;;;;;;;1999.90;999.90;;;3.90;99.90;;;;;;4861865;29;20216;-76
2021/01/01 05:37:54;;;;;;;1999.90;999.90;;;3.90;99.90;;;;;;4861693;29;20654;-75
2021/01/01 05:40:32;;;;;;;1999.90;999.90;;;3.90;99.90;;;;;;4861515;29;20277;-77
2021/01/01 05:43:17;;;;;;;1999.90;999.90;;;3.90;99.90;;;;;;4860774;29;20281;-77
2021/01/01 05:45:44;;;;;;;1999.90;999.90;;;3.90;99.90;;;;;;4862865;29;20206;-76
2021/01/01 05:48:11;;;;;;;1999.90;999.90;;;3.80;99.90;;;;;;4864496;29;20205;-76
2021/01/01 05:50:39;;;;;;;1999.90;999.90;;;3.80;99.90;;;;;;4861242;29;20648;-76
2021/01/01 05:53:13;;;;;;;1999.90;999.90;;;3.80;99.90;;;;;;4861230;29;20209;-76
2021/01/01 05:55:41;;;;;;;1999.90;999.90;;;3.70;99.90;;;;;;4861141;29;20215;-76
2021/01/01 05:58:21;;;;;;;1999.90;999.90;;;3.70;99.90;;;;;;4860710;29;20204;-76
2021/01/01 06:00:50;;;;;;;1999.90;999.90;;;3.60;99.90;;;;;;4860601;29;20240;-76
2021/01/01 06:03:27;;;;;;;1999.90;999.90;;;3.70;99.90;;;;;;4860809;29;20276;-76
2021/01/01 06:05:55;;;;;;;1999.90;999.90;;;3.70;99.90;;;;;;4859039;29;20265;-77
2021/01/01 06:08:25;;;;;;;1999.90;999.90;;;3.80;99.90;;;;;;4860837;29;20265;-76
2021/01/01 06:10:53;;;;;;;1999.90;999.90;;;3.90;99.90;;;;;;4860865;29;20229;-77
2021/01/01 06:13:22;;;;;;;1999.90;999.90;;;3.90;99.90;;;;;;4860708;29;20688;-77
2021/01/01 06:15:57;;;;;;;1999.90;999.90;;;4.00;99.90;;;;;;4861468;29;20245;-78
2021/01/01 06:18:26;;;;;;;1999.90;999.90;;;4.10;99.90;;;;;;4860494;29;20650;-77
2021/01/01 06:20:58;;;;;;;1999.90;999.90;;;4.10;99.90;;;;;;4860377;29;20225;-76
2021/01/01 06:23:36;;;;;;;1999.90;999.90;;;4.00;99.90;;;;;;4860460;29;20232;-76
2021/01/01 06:26:05;;;;;;;1999.90;999.90;;;4.10;99.90;;;;;;4860479;29;20218;-76
2021/01/01 06:28:35;;;;;;;1999.90;999.90;;;4.10;99.90;;;;;;4860755;29;20216;-77
2021/01/01 06:31:02;;;;;;;1999.90;999.90;;;4.10;99.90;;;;;;4860614;29;20506;-75
2021/01/01 06:33:32;;;;;;;1999.90;999.90;;;4.20;99.90;;;;;;4860190;29;20209;-76
2021/01/01 06:36:00;;;;;;;1999.90;999.90;;;4.20;99.90;;;;;;4860617;29;20212;-77
2021/01/01 06:38:39;;;;;;;1999.90;999.90;;;4.10;99.90;;;;;;4860024;29;20671;-77
2021/01/01 06:41:13;;;;;;;1999.90;999.90;;;4.00;99.90;;;;;;4860225;29;20235;-76
2021/01/01 06:43:54;;;;;;;1999.90;999.90;;;4.10;99.90;;;;;;4860593;29;20255;-78
2021/01/01 06:46:35;;;;;;;1999.90;999.90;;;4.20;99.90;;;;;;4860529;29;20248;-80
2021/01/01 06:49:03;;;;;;;1999.90;999.90;;;4.10;99.90;;;;;;4860523;29;20260;-76
2021/01/01 06:51:32;;;;;;;1999.90;999.90;;;4.20;99.90;;;;;;4860035;29;20228;-76
2021/01/01 06:54:11;;;;;;;1999.90;999.90;;;4.20;99.90;;;;;;4860127;29;20204;-76
2021/01/01 06:56:41;;;;;;;1999.90;999.90;;;4.30;99.90;;;;;;4859933;29;20212;-76
2021/01/01 06:59:14;;;;;;;1999.90;999.90;;;4.30;99.90;;;;;;4860484;29;20216;-76
2021/01/01 07:01:43;;;;;;;1999.90;999.90;;;4.30;99.90;;;;;;4859925;29;20323;-77
2021/01/01 07:04:11;;;;;;;1999.90;999.90;;;4.50;99.90;;;;;;4859821;29;20243;-75
2021/01/01 07:06:42;;;;;;;1999.90;999.90;;;4.50;99.90;;;;;;4860567;29;20232;-79
2021/01/01 07:09:11;;;;;;;1999.90;999.90;;;4.60;99.90;;;;;;4859750;29;20212;-78
2021/01/01 07:11:47;;;;;;;1999.90;999.90;;;4.60;99.90;;;;;;4859925;29;20228;-77
2021/01/01 07:14:19;;;;;;;1999.90;999.90;;;4.60;99.90;;;;;;4859978;29;20264;-76
2021/01/01 07:16:48;;;;;;;1999.90;999.90;;;4.60;99.90;;;;;;4859787;29;20209;-77
2021/01/01 07:19:16;;;;;;;1999.90;999.90;;;4.60;99.90;;;;;;4859284;29;20215;-78
2021/01/01 07:21:44;;;;;;;1999.90;999.90;;;4.70;99.90;;;;;;4859621;29;20706;-78
2021/01/01 07:24:11;;;;;;;1999.90;999.90;;;4.70;99.90;;;;;;4859938;29;20228;-80
2021/01/01 07:26:38;;;;;;;1999.90;999.90;;;4.70;99.90;;;;;;4860221;29;20234;-77
2021/01/01 07:29:05;;;;;;;1999.90;999.90;;;4.80;99.90;;;;;;4859462;29;20212;-77
2021/01/01 07:31:32;;;;;;;1999.90;999.90;;;4.90;99.90;;;;;;4858510;29;20698;-77
2021/01/01 07:34:11;;;;;;;1999.90;999.90;;;4.80;99.90;;;;;;4861000;29;20601;-79
2021/01/01 07:36:38;;;;;;;1999.90;999.90;;;4.80;99.90;;;;;;4860213;29;20205;-77
2021/01/01 07:39:07;;;;;;;1999.90;999.90;;;4.80;99.90;;;;;;4860499;29;20604;-77
2021/01/01 07:41:35;;;;;;;1999.90;999.90;;;4.60;99.90;;;;;;4859826;29;20232;-77
2021/01/01 07:44:02;;;;;;;1999.90;999.90;;;4.70;99.90;;;;;;4860197;29;20228;-77
2021/01/01 07:46:31;;;;;;;1999.90;999.90;;;4.80;99.90;;;;;;4859787;29;20448;-77
2021/01/01 07:48:58;;;;;;;1999.90;999.90;;;4.60;99.90;;;;;;4859721;29;20208;-76
2021/01/01 07:51:25;;;;;;;1999.90;999.90;;;4.60;99.90;;;;;;4859607;29;20283;-78
2021/01/01 07:54:07;;;;;;;1999.90;999.90;;;4.60;99.90;;;;;;4859838;29;20295;-76
2021/01/01 07:56:34;;;;;;;1999.90;999.90;;;4.70;99.90;;;;;;4859714;29;20702;-78
2021/01/01 07:59:01;;;;;;;1999.90;999.90;;;4.80;99.90;;;;;;4859692;29;20216;-78
2021/01/01 08:01:30;;;;;;;1999.90;999.90;;;4.80;99.90;;;;;;4860188;29;20802;-78
2021/01/01 08:03:58;;;;;;;1999.90;999.90;;;4.90;99.90;;;;;;4860266;29;20361;-78
2021/01/01 08:06:25;;;;;;;1999.90;999.90;;;4.80;99.90;;;;;;4863722;29;20276;-77
2021/01/01 08:09:04;;;;;;;1999.90;999.90;;;4.80;99.90;;;;;;4863345;29;20284;-76
2021/01/01 08:11:33;;;;;;;1999.90;999.90;;;4.90;99.90;;;;;;4863470;29;20318;-78
2021/01/01 08:14:00;;;;;;;1999.90;999.90;;;4.90;99.90;;;;;;4863489;29;20212;-77
2021/01/01 08:16:28;;;;;;;1999.90;999.90;;;4.90;99.90;;;;;;4863395;29;20215;-77
2021/01/01 08:18:54;;;;;;;1999.90;999.90;;;4.80;99.90;;;;;;4861580;29;20212;-77
2021/01/01 08:21:22;;;;;;;1999.90;999.90;;;4.80;99.90;;;;;;4863047;29;20268;-79
2021/01/01 08:24:02;;;;;;;1999.90;999.90;;;4.80;99.90;;;;;;4863522;29;20224;-78
2021/01/01 08:26:34;;;;;;;1999.90;999.90;;;4.90;99.90;;;;;;4863555;29;20678;-77
2021/01/01 08:29:03;;;;;;;1999.90;999.90;;;5.00;99.90;;;;;;4863231;29;20208;-78
2021/01/01 08:31:30;;;;;;;1999.90;999.90;;;5.10;99.90;;;;;;4863060;29;20232;-78
2021/01/01 08:33:57;;;;;;;1999.90;999.90;;;5.20;99.90;;;;;;4862554;29;20201;-76
2021/01/01 08:36:30;;;;;;;1999.90;999.90;;;5.30;99.90;;;;;;4869585;29;20299;-78
2021/01/01 08:39:06;;;;;;;1999.90;999.90;;;5.40;99.90;;;;;;4881153;29;20212;-77
2021/01/01 08:41:41;;;;;;;1999.90;999.90;;;5.50;99.90;;;;;;4881022;29;20605;-76
2021/01/01 08:44:09;;;;;;;1999.90;999.90;;;5.60;99.90;;;;;;4880882;29;20223;-77
2021/01/01 08:46:36;;;;;;;1999.90;999.90;;;5.60;99.90;;;;;;4880881;29;20211;-77
2021/01/01 08:49:15;;;;;;;1999.90;999.90;;;5.60;99.90;;;;;;4880073;29;20259;-77
2021/01/01 08:51:42;;;;;;;1999.90;999.90;;;5.50;99.90;;;;;;4882698;29;20257;-77
2021/01/01 08:54:20;;;;;;;1999.90;999.90;;;5.50;99.90;;;;;;4882379;29;20240;-79
2021/01/01 08:56:57;;;;;;;1999.90;999.90;;;5.50;99.90;;;;;;4873557;29;20646;-78
2021/01/01 08:59:24;;;;;;;1999.90;999.90;;;5.60;99.90;;;;;;4863992;29;20275;-78
2021/01/01 09:01:51;;;;;;;1999.90;999.90;;;5.60;99.90;;;;;;4863057;29;20241;-78
2021/01/01 09:04:18;;;;;;;1999.90;999.90;;;5.60;99.90;;;;;;4862145;29;20265;-77
2021/01/01 09:06:54;;;;;;;1999.90;999.90;;;5.40;99.90;;;;;;4860916;29;20257;-77
2021/01/01 09:09:28;;;;;;;1999.90;999.90;;;5.50;99.90;;;;;;4861415;29;20572;-77
2021/01/01 09:12:15;;;;;;;1999.90;999.90;;;5.50;99.90;;;;;;4862102;29;20239;-77
2021/01/01 09:14:50;;;;;;;1999.90;999.90;;;5.40;99.90;;;;;;4861394;29;20208;-77
2021/01/01 09:17:19;;;;;;;1999.90;999.90;;;5.40;99.90;;;;;;4860674;29;20284;-77
2021/01/01 09:19:46;;;;;;;1999.90;999.90;;;5.40;99.90;;;;;;4862554;29;20213;-77
2021/01/01 09:22:18;;;;;;;1999.90;999.90;;;5.40;99.90;;;;;;4861074;29;20576;-78
2021/01/01 09:24:47;;;;;;;1999.90;999.90;;;5.30;99.90;;;;;;4861880;29;20244;-78
2021/01/01 09:27:15;;;;;;;1999.90;999.90;;;5.30;99.90;;;;;;4861291;29;20670;-78
2021/01/01 09:29:42;;;;;;;1999.90;999.90;;;5.20;99.90;;;;;;4861482;29;20220;-78
2021/01/01 09:32:10;;;;;;;1999.90;999.90;;;5.30;99.90;;;;;;4861625;29;20224;-78
2021/01/01 09:34:36;;;;;;;1999.90;999.90;;;5.30;99.90;;;;;;4861184;29;20698;-77
2021/01/01 09:37:08;;;;;;;1999.90;999.90;;;5.50;99.90;;;;;;4861477;29;20225;-77
2021/01/01 09:39:35;;;;;;;1999.90;999.90;;;5.70;99.90;;;;;;4861466;29;20213;-77
2021/01/01 09:42:03;;;;;;;1999.90;999.90;;;5.80;99.90;;;;;;4862249;29;20714;-78
2021/01/01 09:44:31;;;;;;;1999.90;999.90;;;5.90;99.90;;;;;;4863299;29;20601;-78
2021/01/01 09:46:58;;;;;;;1999.90;999.90;;;6.00;99.90;;;;;;4863231;29;20208;-78
2021/01/01 09:49:25;;;;;;;1999.90;999.90;;;6.10;99.90;;;;;;4862872;29;20276;-77
2021/01/01 09:51:52;;;;;;;1999.90;999.90;;;6.10;99.90;;;;;;4863255;29;20240;-79
2021/01/01 09:54:35;;;;;;;1999.90;999.90;;;6.10;99.90;;;;;;4863159;29;20209;-78
2021/01/01 09:57:02;;;;;;;1999.90;999.90;;;6.20;99.90;;;;;;4863886;29;20209;-82
2021/01/01 09:59:30;;;;;;;1999.90;999.90;;;6.20;99.90;;;;;;4865745;29;20217;-81
2021/01/01 10:01:58;;;;;;;1999.90;999.90;;;6.20;99.90;;;;;;4866107;29;20236;-82
2021/01/01 10:04:25;;;;;;;1999.90;999.90;;;6.30;99.90;;;;;;4865244;29;20722;-78
2021/01/01 10:06:52;;;;;;;1999.90;999.90;;;6.40;99.90;;;;;;4863803;29;20208;-79
2021/01/01 10:09:19;;;;;;;1999.90;999.90;;;6.50;99.90;;;;;;4863593;29;20216;-79
2021/01/01 10:11:48;;;;;;;1999.90;999.90;;;6.60;99.90;;;;;;4865808;29;20703;-81
2021/01/01 10:14:15;;;;;;;1999.90;999.90;;;6.50;99.90;;;;;;4865856;29;20212;-79
2021/01/01 10:16:47;;;;;;;1999.90;999.90;;;6.40;99.90;;;;;;4866692;29;20555;-81
2021/01/01 10:19:14;;;;;;;1999.90;999.90;;;6.40;99.90;;;;;;4866702;29;20690;-81
2021/01/01 10:21:41;;;;;;;1999.90;999.90;;;6.20;99.90;;;;;;4866884;29;20236;-81
2021/01/01 10:24:08;;;;;;;1999.90;999.90;;;6.10;99.90;;;;;;4866623;29;20229;-82
2021/01/01 10:26:35;;;;;;;1999.90;999.90;;;6.00;99.90;;;;;;4865724;29;20265;-82
2021/01/01 10:29:14;;;;;;;1999.90;999.90;;;6.10;99.90;;;;;;4865748;29;20219;-81
2021/01/01 10:31:41;;;;;;;1999.90;999.90;;;6.10;99.90;;;;;;4867909;29;20292;-82
2021/01/01 10:34:09;;;;;;;1999.90;999.90;;;6.10;99.90;;;;;;4868068;29;20215;-79
2021/01/01 10:36:36;;;;;;;1999.90;999.90;;;6.20;99.90;;;;;;4865140;29;20586;-79
2021/01/01 10:39:04;;;;;;;1999.90;999.90;;;6.20;99.90;;;;;;4861718;29;20215;-78
2021/01/01 10:41:31;;;;;;;1999.90;999.90;;;6.10;99.90;;;;;;4860765;29;20232;-79
2021/01/01 10:43:58;;;;;;;1999.90;999.90;;;6.20;99.90;;;;;;4861334;29;20288;-77
2021/01/01 10:46:24;;;;;;;1999.90;999.90;;;6.20;99.90;;;;;;4860858;29;20208;-77
2021/01/01 10:48:51;;;;;;;1999.90;999.90;;;6.30;99.90;;;;;;4860676;29;20208;-81
2021/01/01 10:51:23;;;;;;;1999.90;999.90;;;6.40;99.90;;;;;;4864271;29;20244;-79
2021/01/01 10:53:50;;;;;;;1999.90;999.90;;;6.60;99.90;;;;;;4864886;29;20212;-81
2021/01/01 10:56:21;;;;;;;1999.90;999.90;;;6.70;99.90;;;;;;4863175;29;20205;-79
2021/01/01 10:58:48;;;;;;;1999.90;999.90;;;6.70;99.90;;;;;;4863942;29;20260;-80
2021/01/01 11:01:18;;;;;;;1999.90;999.90;;;6.80;99.90;;;;;;4864882;29;20785;-81
2021/01/01 11:03:46;;;;;;;1999.90;999.90;;;6.70;99.90;;;;;;4861994;29;20235;-80
2021/01/01 11:06:13;;;;;;;1999.90;999.90;;;6.50;99.90;;;;;;4861642;29;20208;-80
2021/01/01 11:08:41;;;;;;;1999.90;999.90;;;6.70;99.90;;;;;;4862168;29;20213;-79
2021/01/01 11:11:10;;;;;;;1999.90;999.90;;;6.60;99.90;;;;;;4862553;29;20245;-82
2021/01/01 11:13:39;;;;;;;1999.90;999.90;;;6.70;99.90;;;;;;4877982;23;20241;-75
2021/01/01 12:20:14;;;;;;;1999.90;999.90;;;7.30;99.90;;;;;;4896767;29;20247;-77
2021/01/01 12:22:50;;;;;;;1999.90;999.90;;;7.30;99.90;;;;;;4896747;29;20188;-77
2021/01/01 12:25:17;;;;;;;1999.90;999.90;;;7.20;99.90;;;;;;4895027;29;20227;-76
2021/01/01 12:27:46;;;;;;;1999.90;999.90;;;7.40;99.90;;;;;;4895765;29;20204;-76
2021/01/01 12:30:16;;;;;;;1999.90;999.90;;;7.40;99.90;;;;;;4895386;29;20228;-77
2021/01/01 12:32:44;;;;;;;1999.90;999.90;;;7.50;99.90;;;;;;4895383;29;20570;-78
2021/01/01 12:35:12;;;;;;;1999.90;999.90;;;7.60;99.90;;;;;;4895671;29;20615;-77
2021/01/01 12:37:40;;;;;;;1999.90;999.90;;;7.80;99.90;;;;;;4895243;29;20204;-77
2021/01/01 12:40:08;;;;;;;1999.90;999.90;;;7.80;99.90;;;;;;4894410;29;20271;-77
2021/01/01 12:42:35;;;;;;;1999.90;999.90;;;7.90;99.90;;;;;;4896308;29;20820;-78
2021/01/01 12:45:03;;;;;;;1999.90;999.90;;;8.00;99.90;;;;;;4895513;29;20255;-77
2021/01/01 12:47:32;;;;;;;1999.90;999.90;;;8.00;99.90;;;;;;4895632;29;20295;-76
2021/01/01 12:50:00;;;;;;;1999.90;999.90;;;8.00;99.90;;;;;;4893618;29;20222;-75
2021/01/01 12:52:27;;;;;;;1999.90;999.90;;;8.00;99.90;;;;;;4898883;29;20199;-77
2021/01/01 12:54:54;;;;;;;1999.90;999.90;;;8.10;99.90;;;;;;4899775;29;20616;-76
2021/01/01 12:57:21;;;;;;;1999.90;999.90;;;8.10;99.90;;;;;;4898794;29;20219;-76
2021/01/01 12:59:48;;;;;;;1999.90;999.90;;;8.10;99.90;;;;;;4898630;29;20200;-77
2021/01/01 13:02:15;;;;;;;1999.90;999.90;;;8.20;99.90;;;;;;4898765;29;20204;-75
2021/01/01 13:04:42;;;;;;;1999.90;999.90;;;8.10;99.90;;;;;;4898229;29;20724;-75
2021/01/01 13:07:09;;;;;;;1999.90;999.90;;;8.00;99.90;;;;;;4898209;29;20632;-76
2021/01/01 13:09:36;;;;;;;1999.90;999.90;;;8.10;99.90;;;;;;4896882;29;20259;-76
2021/01/01 13:12:04;;;;;;;1999.90;999.90;;;8.10;99.90;;;;;;4898192;29;20725;-76
2021/01/01 13:14:30;;;;;;;1999.90;999.90;;;8.10;99.90;;;;;;4896549;29;20235;-78
2021/01/01 13:16:57;;;;;;;1999.90;999.90;;;7.90;99.90;;;;;;4897364;29;20199;-77
2021/01/01 13:19:24;;;;;;;1999.90;999.90;;;7.80;99.90;;;;;;4895858;29;20204;-78
2021/01/01 13:21:52;;;;;;;1999.90;999.90;;;7.90;99.90;;;;;;4898345;29;20255;-77
2021/01/01 13:24:19;;;;;;;1999.90;999.90;;;8.00;99.90;;;;;;4897816;29;20235;-75
2021/01/01 13:26:47;;;;;;;1999.90;999.90;;;7.80;99.90;;;;;;4896209;29;20676;-75
2021/01/01 13:29:14;;;;;;;1999.90;999.90;;;7.80;99.90;;;;;;4897707;29;20203;-77
2021/01/01 13:31:43;;;;;;;1999.90;999.90;;;7.80;99.90;;;;;;4898573;29;20518;-77
2021/01/01 13:34:11;;;;;;;1999.90;999.90;;;7.70;99.90;;;;;;4896277;29;20279;-77
2021/01/01 13:36:38;;;;;;;1999.90;999.90;;;7.70;99.90;;;;;;4891854;29;20207;-78
2021/01/01 13:39:06;;;;;;;1999.90;999.90;;;7.70;99.90;;;;;;4898947;29;20199;-76
2021/01/01 13:41:37;;;;;;;1999.90;999.90;;;7.70;99.90;;;;;;4897816;29;20272;-77
2021/01/01 13:44:05;;;;;;;1999.90;999.90;;;7.80;99.90;;;;;;4897653;29;20234;-77
2021/01/01 13:46:34;;;;;;;1999.90;999.90;;;7.80;99.90;;;;;;4898246;29;20199;-76
2021/01/01 13:49:02;;;;;;;1999.90;999.90;;;7.80;99.90;;;;;;4898164;29;20346;-77
2021/01/01 13:51:31;;;;;;;1999.90;999.90;;;7.60;99.90;;;;;;4894378;29;20216;-77
2021/01/01 13:53:58;;;;;;;1999.90;999.90;;;7.40;99.90;;;;;;4900321;29;20271;-79
2021/01/01 13:56:27;;;;;;;1999.90;999.90;;;7.40;99.90;;;;;;4898802;29;20226;-76
2021/01/01 13:58:54;;;;;;;1999.90;999.90;;;7.40;99.90;;;;;;4896353;29;20609;-74
2021/01/01 14:01:23;;;;;;;1999.90;999.90;;;7.20;99.90;;;;;;4896612;29;20208;-74
2021/01/01 14:03:52;;;;;;;1999.90;999.90;;;7.10;99.90;;;;;;4894588;29;20648;-74
2021/01/01 14:06:27;;;;;;;1999.90;999.90;;;6.90;99.90;;;;;;4897707;29;20685;-76
2021/01/01 14:08:54;;;;;;;1999.90;999.90;;;6.90;99.90;;;;;;4897560;29;20223;-78
2021/01/01 14:11:21;;;;;;;1999.90;999.90;;;7.00;99.90;;;;;;4905624;29;20204;-78
2021/01/01 14:13:49;;;;;;;1999.90;999.90;;;6.90;99.90;;;;;;4914144;29;20231;-76
2021/01/01 14:16:16;;;;;;;1999.90;999.90;;;7.00;99.90;;;;;;4909876;29;20223;-77
2021/01/01 14:18:43;;;;;;;1999.90;999.90;;;7.00;99.90;;;;;;4908289;29;20227;-77
2021/01/01 14:21:10;;;;;;;1999.90;999.90;;;7.00;99.90;;;;;;4906041;29;20194;-77
2021/01/01 14:23:37;;;;;;;1999.90;999.90;;;7.20;99.90;;;;;;4904504;29;20242;-76
2021/01/01 14:26:04;;;;;;;1999.90;999.90;;;7.20;99.90;;;;;;4901782;29;20535;-76
2021/01/01 14:28:31;;;;;;;1999.90;999.90;;;7.40;99.90;;;;;;4898975;29;20232;-76
2021/01/01 14:30:59;;;;;;;1999.90;999.90;;;7.40;99.90;;;;;;4899880;29;20215;-75
2021/01/01 14:33:26;;;;;;;1999.90;999.90;;;7.30;99.90;;;;;;4916127;29;20203;-77
2021/01/01 14:35:53;;;;;;;1999.90;999.90;;;7.40;99.90;;;;;;4903862;29;20214;-74
2021/01/01 14:38:20;;;;;;;1999.90;999.90;;;7.60;99.90;;;;;;4902820;29;20207;-78
2021/01/01 14:40:48;;;;;;;1999.90;999.90;;;7.60;99.90;;;;;;4904080;29;20207;-78
2021/01/01 14:43:22;;;;;;;1999.90;999.90;;;7.60;99.90;;;;;;4903245;29;20279;-79
2021/01/01 14:45:49;;;;;;;1999.90;999.90;;;7.60;99.90;;;;;;4900963;29;20267;-78
2021/01/01 14:48:16;;;;;;;1999.90;999.90;;;7.60;99.90;;;;;;4901508;29;20239;-79
2021/01/01 14:50:43;;;;;;;1999.90;999.90;;;7.70;99.90;;;;;;4901323;29;20744;-78
2021/01/01 14:53:10;;;;;;;1999.90;999.90;;;7.70;99.90;;;;;;4901595;29;20207;-78
2021/01/01 14:55:37;;;;;;;1999.90;999.90;;;7.70;99.90;;;;;;4900230;29;20283;-75
2021/01/01 14:58:04;;;;;;;1999.90;999.90;;;7.80;99.90;;;;;;4899206;29;20203;-78
2021/01/01 15:00:32;;;;;;;1999.90;999.90;;;7.80;99.90;;;;;;4900246;29;20314;-78
2021/01/01 15:03:00;;;;;;;1999.90;999.90;;;7.70;99.90;;;;;;4899573;29;20436;-78
2021/01/01 15:05:28;;;;;;;1999.90;999.90;;;7.70;99.90;;;;;;4899204;29;20692;-78
2021/01/01 15:07:55;;;;;;;1999.90;999.90;;;7.70;99.90;;;;;;4899015;29;20299;-77
2021/01/01 15:10:22;;;;;;;1999.90;999.90;;;7.80;99.90;;;;;;4898445;29;20240;-78
2021/01/01 15:12:49;;;;;;;1999.90;999.90;;;7.70;99.90;;;;;;4900103;29;20219;-79
2021/01/01 15:15:16;;;;;;;1999.90;999.90;;;7.60;99.90;;;;;;4899131;29;20235;-77
2021/01/01 15:17:43;;;;;;;1999.90;999.90;;;7.60;99.90;;;;;;4894650;29;20207;-77
2021/01/01 15:20:11;;;;;;;1999.90;999.90;;;7.60;99.90;;;;;;4895493;29;20203;-76
2021/01/01 15:22:39;;;;;;;1999.90;999.90;;;7.60;99.90;;;;;;4897016;29;20375;-77
2021/01/01 15:25:07;;;;;;;1999.90;999.90;;;7.60;99.90;;;;;;4897923;29;20227;-77
2021/01/01 15:27:33;;;;;;;1999.90;999.90;;;7.60;99.90;;;;;;4896556;29;20207;-73
2021/01/01 15:30:00;;;;;;;1999.90;999.90;;;7.50;99.90;;;;;;4896607;29;20207;-72
2021/01/01 15:32:27;;;;;;;1999.90;999.90;;;7.40;99.90;;;;;;4896139;29;20230;-75
2021/01/01 15:34:54;;;;;;;1999.90;999.90;;;7.40;99.90;;;;;;4893713;29;20596;-75
2021/01/01 15:37:21;;;;;;;1999.90;999.90;;;7.30;99.90;;;;;;4895961;29;20683;-75
2021/01/01 15:39:49;;;;;;;1999.90;999.90;;;7.40;99.90;;;;;;4895752;29;20717;-75
2021/01/01 15:42:16;;;;;;;1999.90;999.90;;;7.40;99.90;;;;;;4896237;29;20583;-75
2021/01/01 15:44:43;;;;;;;1999.90;999.90;;;7.40;99.90;;;;;;4896043;29;20628;-75
2021/01/01 15:47:10;;;;;;;1999.90;999.90;;;7.30;99.90;;;;;;4895835;29;20199;-76
2021/01/01 15:49:36;;;;;;;1999.90;999.90;;;7.40;99.90;;;;;;4895792;29;20407;-76
2021/01/01 15:52:03;;;;;;;1999.90;999.90;;;7.30;99.90;;;;;;4896217;29;20206;-76
2021/01/01 15:54:31;;;;;;;1999.90;999.90;;;7.20;99.90;;;;;;4896157;29;20215;-75
2021/01/01 15:56:58;;;;;;;1999.90;999.90;;;7.20;99.90;;;;;;4895985;29;20207;-75
2021/01/01 15:59:26;;;;;;;1999.90;999.90;;;7.20;99.90;;;;;;4895965;29;20203;-75
2021/01/01 16:01:52;;;;;;;1999.90;999.90;;;7.30;99.90;;;;;;4896233;29;20275;-76
2021/01/01 16:04:19;;;;;;;1999.90;999.90;;;7.30;99.90;;;;;;4895516;29;20231;-75
2021/01/01 16:06:47;;;;;;;1999.90;999.90;;;7.30;99.90;;;;;;4895985;29;20199;-79
2021/01/01 16:09:15;;;;;;;1999.90;999.90;;;7.30;99.90;;;;;;4893828;29;20204;-75
2021/01/01 16:11:42;;;;;;;1999.90;999.90;;;7.30;99.90;;;;;;4895142;29;20200;-75
2021/01/01 16:14:10;;;;;;;1999.90;999.90;;;7.30;99.90;;;;;;4894886;29;20239;-75
2021/01/01 16:16:38;;;;;;;1999.90;999.90;;;7.20;99.90;;;;;;4892401;29;20200;-76
2021/01/01 16:19:07;;;;;;;1999.90;999.90;;;7.10;99.90;;;;;;4888234;29;21595;-75
2021/01/01 16:21:35;;;;;;;1999.90;999.90;;;7.10;99.90;;;;;;4893392;29;20256;-75
2021/01/01 16:24:03;;;;;;;1999.90;999.90;;;7.10;99.90;;;;;;4891526;29;20231;-75
2021/01/01 16:26:30;;;;;;;1999.90;999.90;;;7.10;99.90;;;;;;4896364;29;20213;-74
2021/01/01 16:28:57;;;;;;;1999.90;999.90;;;7.10;99.90;;;;;;4904186;29;20258;-75
2021/01/01 16:31:31;;;;;;;1999.90;999.90;;;7.00;99.90;;;;;;4912899;29;20234;-74
2021/01/01 16:33:58;;;;;;;1999.90;999.90;;;7.10;99.90;;;;;;4908502;29;20234;-77
2021/01/01 16:36:28;;;;;;;1999.90;999.90;;;7.10;99.90;;;;;;4907836;29;20207;-74
2021/01/01 16:38:56;;;;;;;1999.90;999.90;;;7.00;99.90;;;;;;4906580;29;20203;-75
2021/01/01 16:41:33;;;;;;;1999.90;999.90;;;6.80;99.90;;;;;;4910424;29;20207;-74
2021/01/01 16:44:00;;;;;;;1999.90;999.90;;;6.80;99.90;;;;;;4912904;29;20766;-75
2021/01/01 16:46:27;;;;;;;1999.90;999.90;;;6.80;99.90;;;;;;4908035;29;20211;-75
2021/01/01 16:48:54;;;;;;;1999.90;999.90;;;6.90;99.90;;;;;;4907228;29;20247;-75
2021/01/01 16:51:28;;;;;;;1999.90;999.90;;;6.90;99.90;;;;;;4904929;29;20234;-76
2021/01/01 16:53:56;;;;;;;1999.90;999.90;;;6.90;99.90;;;;;;4900075;29;20238;-78
2021/01/01 16:56:24;;;;;;;1999.90;999.90;;;6.90;99.90;;;;;;4899691;29;20235;-77
2021/01/01 16:58:51;;;;;;;1999.90;999.90;;;7.00;99.90;;;;;;4899679;29;20263;-75
2021/01/01 17:01:18;;;;;;;1999.90;999.90;;;6.90;99.90;;;;;;4903613;29;20219;-77
2021/01/01 17:03:45;;;;;;;1999.90;999.90;;;7.00;99.90;;;;;;4901833;29;20231;-75
2021/01/01 17:06:18;;;;;;;1999.90;999.90;;;7.00;99.90;;;;;;4899200;29;20218;-75
2021/01/01 17:08:47;;;;;;;1999.90;999.90;;;7.00;99.90;;;;;;4899034;29;20278;-75
2021/01/01 17:11:15;;;;;;;1999.90;999.90;;;7.00;99.90;;;;;;4899248;29;20214;-76
2021/01/01 17:13:41;;;;;;;1999.90;999.90;;;7.00;99.90;;;;;;4899304;29;20270;-76
2021/01/01 17:18:37;;;;;;;1999.90;999.90;;;7.00;99.90;;;;;;4915768;29;20211;-78
2021/01/01 17:21:04;;;;;;;1999.90;999.90;;;6.90;99.90;;;;;;4899610;29;20211;-78
2021/01/01 17:23:31;;;;;;;1999.90;999.90;;;6.90;99.90;;;;;;4899845;29;20255;-80
2021/01/01 17:25:58;;;;;;;1999.90;999.90;;;6.90;99.90;;;;;;4900838;29;20227;-77
2021/01/01 17:28:25;;;;;;;1999.90;999.90;;;6.90;99.90;;;;;;4880896;29;20224;-76
2021/01/01 17:31:07;;;;;;;1999.90;999.90;;;6.90;99.90;;;;;;4876955;29;20240;-75
2021/01/01 17:33:34;;;;;;;1999.90;999.90;;;6.90;99.90;;;;;;4877917;29;20219;-78
2021/01/01 17:36:01;;;;;;;1999.90;999.90;;;6.90;99.90;;;;;;4877313;29;20208;-77
2021/01/01 17:38:28;;;;;;;1999.90;999.90;;;6.90;99.90;;;;;;4877296;29;20280;-77
2021/01/01 17:41:02;;;;;;;1999.90;999.90;;;6.70;99.90;;;;;;4881029;29;20241;-77
2021/01/01 17:43:32;;;;;;;1999.90;999.90;;;6.60;99.90;;;;;;4886373;29;20207;-78
2021/01/01 17:45:58;;;;;;;1999.90;999.90;;;6.40;99.90;;;;;;4885288;29;20227;-79
2021/01/01 17:48:25;;;;;;;1999.90;999.90;;;6.40;99.90;;;;;;4880683;29;20231;-79
2021/01/01 17:50:52;;;;;;;1999.90;999.90;;;6.40;99.90;;;;;;4884202;29;20208;-79
2021/01/01 17:53:19;;;;;;;1999.90;999.90;;;6.40;99.90;;;;;;4883496;29;20225;-78
2021/01/01 17:55:47;;;;;;;1999.90;999.90;;;6.50;99.90;;;;;;4883544;29;20290;-80
2021/01/01 17:58:15;;;;;;;1999.90;999.90;;;6.50;99.90;;;;;;4886884;29;20268;-78
2021/01/01 18:00:42;;;;;;;1999.90;999.90;;;6.50;99.90;;;;;;4881507;29;20215;-78
2021/01/01 18:03:11;;;;;;;1999.90;999.90;;;6.40;99.90;;;;;;4882629;29;20219;-77
2021/01/01 18:05:38;;;;;;;1999.90;999.90;;;6.30;99.90;;;;;;4880046;29;20273;-77
2021/01/01 18:08:05;;;;;;;1999.90;999.90;;;6.40;99.90;;;;;;4880517;29;20665;-78
2021/01/01 18:10:33;;;;;;;1999.90;999.90;;;6.40;99.90;;;;;;4883602;29;20525;-79
2021/01/01 18:13:01;;;;;;;1999.90;999.90;;;6.20;99.90;;;;;;4884683;29;20256;-80
2021/01/01 18:15:30;;;;;;;1999.90;999.90;;;6.30;99.90;;;;;;4882436;29;20204;-78
2021/01/01 18:17:59;;;;;;;1999.90;999.90;;;6.30;99.90;;;;;;4883031;29;20295;-80
2021/01/01 18:20:26;;;;;;;1999.90;999.90;;;6.70;99.90;;;;;;4883217;29;20208;-80
2021/01/01 18:22:59;;;;;;;1999.90;999.90;;;6.40;99.90;;;;;;4883060;29;20208;-80
2021/01/01 18:25:27;;;;;;;1999.90;999.90;;;6.20;99.90;;;;;;4883857;29;20662;-78